createdAt,value
2019-05-25T00:00:35.397Z,100755.97
2019-05-25T00:01:11.494Z,100758.66
2019-05-25T00:01:47.446Z,100760.53
2019-05-25T00:02:23.338Z,100767.27
2019-05-25T00:02:59.210Z,100766.73
2019-05-25T00:03:35.191Z,100767.01
2019-05-25T00:04:11.123Z,100769.98
2019-05-25T00:04:47.019Z,100772.16
2019-05-25T00:05:22.891Z,100773.82
2019-05-25T00:05:58.855Z,100773.82
2019-05-25T00:06:34.742Z,100781.86
2019-05-25T00:07:10.625Z,100779.47
2019-05-25T00:07:46.531Z,100778.97
2019-05-25T00:08:24.729Z,100779.25
2019-05-25T00:09:00.589Z,100776.53
2019-05-25T00:09:36.433Z,100782.47
2019-05-25T00:10:12.374Z,100780.03
2019-05-25T00:10:48.376Z,100778.69
2019-05-25T00:11:24.278Z,100784.88
2019-05-25T00:12:00.138Z,100781.38
2019-05-25T00:12:36.041Z,100789.75
2019-05-25T00:13:11.956Z,100788.42
2019-05-25T00:13:47.843Z,100785.20
2019-05-25T00:14:23.744Z,100781.97
2019-05-25T00:14:59.628Z,100784.12
2019-05-25T00:15:35.493Z,100780.91
2019-05-25T00:16:11.365Z,100781.95
2019-05-25T00:16:47.253Z,100782.51
2019-05-25T00:17:25.753Z,100784.40
2019-05-25T00:18:01.720Z,100783.05
2019-05-25T00:18:37.617Z,100785.48
2019-05-25T00:19:13.525Z,100787.89
2019-05-25T00:19:49.435Z,100791.95
2019-05-25T00:20:25.298Z,100788.43
2019-05-25T00:21:01.292Z,100786.02
2019-05-25T00:21:37.250Z,100787.36
2019-05-25T00:22:13.158Z,100794.08
2019-05-25T00:22:49.158Z,100790.04
2019-05-25T00:23:25.075Z,100780.34
2019-05-25T00:24:11.613Z,100790.33
2019-05-25T00:24:38.658Z,100793.56
2019-05-25T00:25:14.671Z,100784.65
2019-05-25T00:25:50.567Z,100792.22
2019-05-25T00:26:26.407Z,100786.29
2019-05-25T00:27:02.334Z,100790.05
2019-05-25T00:27:38.191Z,100787.90
2019-05-25T00:28:14.088Z,100801.11
2019-05-25T00:28:50.050Z,100802.45
2019-05-25T00:29:25.970Z,100807.02
2019-05-25T00:30:02.032Z,100800.81
2019-05-25T00:30:38.071Z,100806.49
2019-05-25T00:31:14.210Z,100794.36
2019-05-25T00:31:50.092Z,100804.86
2019-05-25T00:32:26.057Z,100809.19
2019-05-25T00:33:01.994Z,100810.53
2019-05-25T00:33:39.518Z,100807.84
2019-05-25T00:34:15.471Z,100805.41
2019-05-25T00:34:51.334Z,100812.69
2019-05-25T00:35:27.215Z,100812.14
2019-05-25T00:36:03.125Z,100813.75
2019-05-25T00:36:39.038Z,100820.75
2019-05-25T00:37:16.022Z,100820.47
2019-05-25T00:37:51.959Z,100819.10
2019-05-25T00:38:27.806Z,100824.23
2019-05-25T00:39:04.751Z,100819.10
2019-05-25T00:39:40.700Z,100816.41
2019-05-25T00:40:16.727Z,100821.52
2019-05-25T00:40:52.687Z,100824.47
2019-05-25T00:41:28.553Z,100829.31
2019-05-25T00:42:04.401Z,100826.09
2019-05-25T00:42:40.317Z,100825.80
2019-05-25T00:43:16.168Z,100823.67
2019-05-25T00:43:51.993Z,100821.23
2019-05-25T00:44:27.852Z,100829.31
2019-05-25T00:45:05.011Z,100825.28
2019-05-25T00:45:40.902Z,100823.38
2019-05-25T00:46:18.327Z,100825.28
2019-05-25T00:46:54.536Z,100822.32
2019-05-25T00:47:30.438Z,100823.67
2019-05-25T00:48:06.592Z,100830.14
2019-05-25T00:48:42.487Z,100824.21
2019-05-25T00:49:21.145Z,100829.87
2019-05-25T00:49:57.684Z,100824.48
2019-05-25T00:50:33.532Z,100831.27
2019-05-25T00:51:09.455Z,100826.14
2019-05-25T00:51:45.333Z,100826.66
2019-05-25T00:52:21.335Z,100830.97
2019-05-25T00:52:57.236Z,100829.34
2019-05-25T00:53:33.354Z,100827.70
2019-05-25T00:54:09.286Z,100819.89
2019-05-25T00:54:45.282Z,100822.58
2019-05-25T00:55:21.664Z,100823.67
2019-05-25T00:55:59.067Z,100819.63
2019-05-25T00:56:34.962Z,100814.52
2019-05-25T00:57:10.824Z,100820.19
2019-05-25T00:57:46.719Z,100823.41
2019-05-25T00:58:22.645Z,100814.50
2019-05-25T00:58:58.553Z,100817.19
2019-05-25T00:59:34.399Z,100816.93
2019-05-25T01:00:10.325Z,100816.11
2019-05-25T01:00:46.183Z,100817.72
2019-05-25T01:01:24.474Z,100819.58
2019-05-25T01:01:59.700Z,100813.11
2019-05-25T01:02:35.772Z,100822.55
2019-05-25T01:03:11.779Z,100815.27
2019-05-25T01:03:47.631Z,100820.37
2019-05-25T01:04:23.602Z,100812.58
2019-05-25T01:04:59.509Z,100816.08
2019-05-25T01:05:35.548Z,100809.88
2019-05-25T01:06:12.959Z,100810.41
2019-05-25T01:06:49.117Z,100813.36
2019-05-25T01:07:25.065Z,100813.36
2019-05-25T01:08:01.154Z,100810.95
2019-05-25T01:08:37.082Z,100809.87
2019-05-25T01:09:13.072Z,100815.52
2019-05-25T01:09:48.931Z,100813.09
2019-05-25T01:10:24.998Z,100813.61
2019-05-25T01:11:00.987Z,100814.41
2019-05-25T01:11:38.351Z,100808.48
2019-05-25T01:12:14.238Z,100808.45
2019-05-25T01:12:50.266Z,100811.67
2019-05-25T01:13:26.139Z,100801.17
2019-05-25T01:14:02.046Z,100811.13
2019-05-25T01:14:37.884Z,100812.19
2019-05-25T01:15:14.519Z,100810.56
2019-05-25T01:15:50.397Z,100813.78
2019-05-25T01:16:26.319Z,100808.64
2019-05-25T01:17:03.865Z,100811.34
2019-05-25T01:17:39.825Z,100808.91
2019-05-25T01:18:15.716Z,100811.86
2019-05-25T01:18:51.620Z,100811.60
2019-05-25T01:19:27.585Z,100815.10
2019-05-25T01:20:03.587Z,100808.15
2019-05-25T01:20:42.339Z,100815.91
2019-05-25T01:21:18.236Z,100816.45
2019-05-25T01:21:54.128Z,100816.97
2019-05-25T01:22:30.053Z,100816.97
2019-05-25T01:23:06.040Z,100817.52
2019-05-25T01:23:41.919Z,100821.02
2019-05-25T01:24:17.769Z,100812.41
2019-05-25T01:24:53.651Z,100818.58
2019-05-25T01:25:31.131Z,100821.54
2019-05-25T01:26:07.035Z,100819.36
2019-05-25T01:26:42.961Z,100816.38
2019-05-25T01:27:18.790Z,100816.38
2019-05-25T01:27:54.633Z,100822.03
2019-05-25T01:28:30.708Z,100822.27
2019-05-25T01:29:06.569Z,100822.27
2019-05-25T01:29:43.118Z,100821.19
2019-05-25T01:30:19.194Z,100823.05
2019-05-25T01:30:55.182Z,100828.97
2019-05-25T01:31:31.023Z,100824.38
2019-05-25T01:32:06.899Z,100832.17
2019-05-25T01:32:42.796Z,100825.70
2019-05-25T01:33:18.679Z,100821.96
2019-05-25T01:33:54.559Z,100826.76
2019-05-25T01:34:30.472Z,100826.76
2019-05-25T01:35:06.409Z,100833.22
2019-05-25T01:35:42.421Z,100830.81
2019-05-25T01:36:18.422Z,100830.81
2019-05-25T01:36:54.387Z,100831.88
2019-05-25T01:37:30.465Z,100829.45
2019-05-25T01:38:06.447Z,100829.45
2019-05-25T01:38:42.347Z,100834.02
2019-05-25T01:39:18.270Z,100834.28
2019-05-25T01:39:54.129Z,100830.50
2019-05-25T01:40:30.067Z,100831.02
2019-05-25T01:41:05.946Z,100829.38
2019-05-25T01:41:41.850Z,100828.55
2019-05-25T01:42:17.785Z,100829.39
2019-05-25T01:42:53.648Z,100830.16
2019-05-25T01:43:29.581Z,100820.75
2019-05-25T01:44:05.655Z,100820.75
2019-05-25T01:44:41.552Z,100829.62
2019-05-25T01:45:17.409Z,100829.62
2019-05-25T01:45:53.426Z,100833.15
2019-05-25T01:46:29.380Z,100827.20
2019-05-25T01:47:07.002Z,100829.33
2019-05-25T01:47:42.911Z,100833.37
2019-05-25T01:48:18.846Z,100838.23
2019-05-25T01:48:54.716Z,100833.09
2019-05-25T01:49:30.560Z,100832.55
2019-05-25T01:50:07.077Z,100833.06
2019-05-25T01:50:42.960Z,100837.12
2019-05-25T01:51:18.870Z,100834.13
2019-05-25T01:51:54.781Z,100834.13
2019-05-25T01:52:30.758Z,100838.17
2019-05-25T01:53:06.733Z,100835.73
2019-05-25T01:53:42.704Z,100834.65
2019-05-25T01:54:18.740Z,100834.36
2019-05-25T01:54:59.803Z,100829.48
2019-05-25T01:55:32.418Z,100834.33
2019-05-25T01:56:08.348Z,100835.66
2019-05-25T01:56:45.783Z,100827.84
2019-05-25T01:57:21.862Z,100829.77
2019-05-25T01:57:57.735Z,100826.01
2019-05-25T01:58:33.600Z,100836.45
2019-05-25T01:59:09.477Z,100835.62
2019-05-25T01:59:45.352Z,100829.39
2019-05-25T02:00:21.643Z,100828.30
2019-05-25T02:00:57.549Z,100832.35
2019-05-25T02:01:33.493Z,100826.66
2019-05-25T02:02:09.428Z,100826.38
2019-05-25T02:02:45.427Z,100827.75
2019-05-25T02:03:21.503Z,100829.33
2019-05-25T02:03:57.439Z,100830.39
2019-05-25T02:04:33.312Z,100831.75
2019-05-25T02:05:09.538Z,100824.16
2019-05-25T02:05:45.418Z,100826.02
2019-05-25T02:06:21.368Z,100817.13
2019-05-25T02:06:57.423Z,100817.13
2019-05-25T02:07:33.364Z,100819.22
2019-05-25T02:08:09.333Z,100825.12
2019-05-25T02:08:45.283Z,100813.81
2019-05-25T02:09:21.152Z,100816.74
2019-05-25T02:09:57.088Z,100816.74
2019-05-25T02:10:32.998Z,100823.39
2019-05-25T02:11:08.868Z,100822.84
2019-05-25T02:11:44.760Z,100820.14
2019-05-25T02:12:20.659Z,100816.37
2019-05-25T02:12:56.587Z,100823.61
2019-05-25T02:13:32.485Z,100823.83
2019-05-25T02:14:08.397Z,100812.77
2019-05-25T02:14:44.339Z,100817.34
2019-05-25T02:15:20.289Z,100817.34
2019-05-25T02:15:56.203Z,100812.12
2019-05-25T02:16:32.886Z,100812.12
2019-05-25T02:17:08.751Z,100823.87
2019-05-25T02:17:45.165Z,100823.87
2019-05-25T02:18:21.054Z,100818.76
2019-05-25T02:18:56.974Z,100825.66
2019-05-25T02:19:32.859Z,100825.66
2019-05-25T02:20:09.084Z,100818.61
2019-05-25T02:20:45.058Z,100822.29
2019-05-25T02:21:20.906Z,100827.11
2019-05-25T02:21:56.890Z,100827.11
2019-05-25T02:22:32.835Z,100821.11
2019-05-25T02:23:08.780Z,100830.75
2019-05-25T02:23:44.814Z,100830.75
2019-05-25T02:24:20.729Z,100825.80
2019-05-25T02:24:56.598Z,100825.80
2019-05-25T02:25:32.530Z,100820.09
2019-05-25T02:26:08.514Z,100820.09
2019-05-25T02:26:44.434Z,100830.23
2019-05-25T02:27:20.513Z,100832.85
2019-05-25T02:27:56.400Z,100823.64
2019-05-25T02:28:32.316Z,100823.85
2019-05-25T02:29:08.173Z,100835.38
2019-05-25T02:29:44.063Z,100835.38
2019-05-25T02:30:21.650Z,100833.93
2019-05-25T02:30:57.635Z,100838.11
2019-05-25T02:31:33.476Z,100838.11
2019-05-25T02:32:09.274Z,100836.45
2019-05-25T02:32:45.142Z,100817.57
2019-05-25T02:33:21.047Z,100832.83
2019-05-25T02:33:56.983Z,100834.69
2019-05-25T02:34:32.864Z,100834.89
2019-05-25T02:35:11.854Z,100836.45
2019-05-25T02:35:47.735Z,100835.30
2019-05-25T02:36:23.629Z,100838.45
2019-05-25T02:36:59.504Z,100840.01
2019-05-25T02:37:35.359Z,100837.55
2019-05-25T02:38:11.285Z,100840.77
2019-05-25T02:38:47.305Z,100840.16
2019-05-25T02:39:23.335Z,100835.50
2019-05-25T02:39:59.255Z,100837.59
2019-05-25T02:40:35.122Z,100838.59
2019-05-25T02:41:11.043Z,100844.45
2019-05-25T02:41:46.894Z,100838.42
2019-05-25T02:42:22.801Z,100841.02
2019-05-25T02:42:58.685Z,100838.79
2019-05-25T02:43:34.583Z,100843.85
2019-05-25T02:44:10.471Z,100839.48
2019-05-25T02:44:46.337Z,100842.64
2019-05-25T02:45:22.952Z,100843.94
2019-05-25T02:45:58.867Z,100841.43
2019-05-25T02:46:34.762Z,100839.44
2019-05-25T02:47:10.758Z,100840.99
2019-05-25T02:47:46.649Z,100841.69
2019-05-25T02:48:22.537Z,100837.81
2019-05-25T02:48:58.455Z,100840.10
2019-05-25T02:49:34.453Z,100843.56
2019-05-25T02:50:10.628Z,100840.73
2019-05-25T02:50:46.490Z,100843.33
2019-05-25T02:51:22.505Z,100838.66
2019-05-25T02:51:58.494Z,100844.48
2019-05-25T02:52:35.021Z,100841.34
2019-05-25T02:53:10.903Z,100835.00
2019-05-25T02:53:46.828Z,100835.12
2019-05-25T02:54:22.786Z,100833.92
2019-05-25T02:54:58.782Z,100836.75
2019-05-25T02:55:35.375Z,100837.24
2019-05-25T02:56:11.386Z,100836.66
2019-05-25T02:56:47.287Z,100829.32
2019-05-25T02:57:23.161Z,100830.73
2019-05-25T02:57:59.071Z,100831.82
2019-05-25T02:58:34.942Z,100832.59
2019-05-25T02:59:10.798Z,100832.22
2019-05-25T02:59:46.823Z,100834.83
2019-05-25T03:00:32.404Z,100830.14
2019-05-25T03:01:08.591Z,100834.32
2019-05-25T03:01:44.518Z,100837.15
2019-05-25T03:02:20.437Z,100831.84
2019-05-25T03:02:56.617Z,100828.14
2019-05-25T03:03:32.567Z,100823.94
2019-05-25T03:04:08.578Z,100823.31
2019-05-25T03:04:44.456Z,100826.05
2019-05-25T03:05:20.347Z,100826.47
2019-05-25T03:05:57.304Z,100825.53
2019-05-25T03:06:33.692Z,100826.19
2019-05-25T03:07:09.732Z,100822.53
2019-05-25T03:07:46.660Z,100825.86
2019-05-25T03:08:22.527Z,100821.64
2019-05-25T03:08:59.414Z,100822.60
2019-05-25T03:09:36.048Z,100815.42
2019-05-25T03:10:11.898Z,100825.37
2019-05-25T03:10:47.877Z,100812.70
2019-05-25T03:11:23.881Z,100818.81
2019-05-25T03:12:01.383Z,100819.50
2019-05-25T03:12:37.230Z,100823.03
2019-05-25T03:13:13.247Z,100815.71
2019-05-25T03:13:49.189Z,100815.63
2019-05-25T03:14:25.071Z,100812.67
2019-05-25T03:15:01.067Z,100812.84
2019-05-25T03:15:37.011Z,100822.67
2019-05-25T03:16:12.874Z,100813.23
2019-05-25T03:16:48.827Z,100813.00
2019-05-25T03:17:26.259Z,100811.00
2019-05-25T03:18:02.200Z,100807.00
2019-05-25T03:18:38.126Z,100806.20
2019-05-25T03:19:14.006Z,100804.20
2019-05-25T03:19:49.903Z,100808.84
2019-05-25T03:20:25.743Z,100811.00
2019-05-25T03:21:01.664Z,100802.92
2019-05-25T03:21:37.538Z,100807.80
2019-05-25T03:22:13.429Z,100807.03
2019-05-25T03:22:49.425Z,100804.47
2019-05-25T03:23:25.320Z,100804.47
2019-05-25T03:24:01.197Z,100803.27
2019-05-25T03:24:37.034Z,100800.47
2019-05-25T03:25:13.033Z,100797.83
2019-05-25T03:25:50.243Z,100801.11
2019-05-25T03:26:26.399Z,100805.52
2019-05-25T03:27:02.319Z,100796.72
2019-05-25T03:27:38.349Z,100800.64
2019-05-25T03:28:14.211Z,100794.88
2019-05-25T03:28:50.047Z,100795.30
2019-05-25T03:29:26.660Z,100796.73
2019-05-25T03:30:02.593Z,100792.66
2019-05-25T03:30:38.790Z,100794.59
2019-05-25T03:31:14.736Z,100790.50
2019-05-25T03:31:50.605Z,100793.14
2019-05-25T03:32:26.472Z,100789.30
2019-05-25T03:33:02.362Z,100786.02
2019-05-25T03:33:38.245Z,100785.15
2019-05-25T03:34:14.143Z,100788.92
2019-05-25T03:34:50.040Z,100786.10
2019-05-25T03:35:25.906Z,100789.87
2019-05-25T03:36:01.831Z,100785.45
2019-05-25T03:36:37.686Z,100786.45
2019-05-25T03:37:13.601Z,100785.02
2019-05-25T03:37:49.592Z,100780.63
2019-05-25T03:38:25.416Z,100785.58
2019-05-25T03:39:01.265Z,100784.14
2019-05-25T03:39:37.143Z,100782.70
2019-05-25T03:40:13.189Z,100778.39
2019-05-25T03:40:49.028Z,100778.30
2019-05-25T03:41:26.425Z,100782.14
2019-05-25T03:42:02.323Z,100786.10
2019-05-25T03:42:38.238Z,100782.27
2019-05-25T03:43:14.245Z,100783.70
2019-05-25T03:43:50.125Z,100782.51
2019-05-25T03:44:25.974Z,100785.47
2019-05-25T03:45:01.943Z,100786.58
2019-05-25T03:45:37.937Z,100785.06
2019-05-25T03:46:13.937Z,100782.27
2019-05-25T03:46:49.772Z,100784.11
2019-05-25T03:47:25.643Z,100782.98
2019-05-25T03:48:01.537Z,100788.05
2019-05-25T03:48:37.448Z,100786.78
2019-05-25T03:49:13.317Z,100782.46
2019-05-25T03:49:49.197Z,100779.10
2019-05-25T03:50:25.080Z,100781.27
2019-05-25T03:51:01.080Z,100783.42
2019-05-25T03:51:37.003Z,100781.82
2019-05-25T03:52:12.869Z,100780.22
2019-05-25T03:52:48.861Z,100779.19
2019-05-25T03:53:24.757Z,100780.03
2019-05-25T03:54:00.673Z,100773.80
2019-05-25T03:54:36.521Z,100784.34
2019-05-25T03:55:12.420Z,100781.34
2019-05-25T03:55:48.287Z,100774.84
2019-05-25T03:56:24.284Z,100777.51
2019-05-25T03:57:00.198Z,100779.42
2019-05-25T03:57:36.110Z,100774.23
2019-05-25T03:58:11.969Z,100774.95
2019-05-25T03:58:47.812Z,100772.63
2019-05-25T03:59:23.952Z,100776.86
2019-05-25T03:59:59.808Z,100770.16
2019-05-25T04:00:37.040Z,100772.23
2019-05-25T04:01:13.099Z,100773.51
2019-05-25T04:01:48.974Z,100771.13
2019-05-25T04:02:24.872Z,100768.25
2019-05-25T04:03:00.751Z,100773.80
2019-05-25T04:03:36.642Z,100771.94
2019-05-25T04:04:12.514Z,100772.61
2019-05-25T04:04:48.399Z,100770.67
2019-05-25T04:05:24.216Z,100766.98
2019-05-25T04:06:00.082Z,100770.02
2019-05-25T04:06:35.953Z,100768.81
2019-05-25T04:07:11.806Z,100772.56
2019-05-25T04:07:47.926Z,100770.97
2019-05-25T04:08:23.855Z,100761.38
2019-05-25T04:08:59.766Z,100766.76
2019-05-25T04:09:35.606Z,100767.64
2019-05-25T04:10:11.463Z,100763.33
2019-05-25T04:10:48.632Z,100766.42
2019-05-25T04:11:24.475Z,100761.87
2019-05-25T04:12:00.402Z,100766.03
2019-05-25T04:12:37.798Z,100765.08
2019-05-25T04:13:13.823Z,100764.27
2019-05-25T04:13:49.797Z,100762.97
2019-05-25T04:14:25.696Z,100767.12
2019-05-25T04:15:01.574Z,100763.83
2019-05-25T04:15:37.497Z,100761.38
2019-05-25T04:16:13.368Z,100761.75
2019-05-25T04:16:49.267Z,100767.98
2019-05-25T04:17:25.258Z,100759.84
2019-05-25T04:18:01.121Z,100764.09
2019-05-25T04:18:36.968Z,100761.30
2019-05-25T04:19:12.876Z,100764.89
2019-05-25T04:19:49.320Z,100761.80
2019-05-25T04:20:25.225Z,100767.47
2019-05-25T04:21:01.153Z,100760.44
2019-05-25T04:21:38.313Z,100760.91
2019-05-25T04:22:14.178Z,100760.59
2019-05-25T04:22:50.111Z,100766.18
2019-05-25T04:23:26.109Z,100755.25
2019-05-25T04:24:02.029Z,100756.59
2019-05-25T04:24:37.987Z,100750.75
2019-05-25T04:25:13.927Z,100755.77
2019-05-25T04:25:49.807Z,100758.32
2019-05-25T04:26:27.589Z,100757.70
2019-05-25T04:27:03.349Z,100759.13
2019-05-25T04:27:39.323Z,100750.78
2019-05-25T04:28:15.376Z,100748.15
2019-05-25T04:28:51.909Z,100751.84
2019-05-25T04:29:27.872Z,100750.78
2019-05-25T04:30:03.782Z,100747.40
2019-05-25T04:30:39.637Z,100748.34
2019-05-25T04:31:15.495Z,100741.95
2019-05-25T04:31:51.451Z,100746.84
2019-05-25T04:32:27.327Z,100744.44
2019-05-25T04:33:03.208Z,100743.97
2019-05-25T04:33:39.028Z,100739.60
2019-05-25T04:34:15.046Z,100749.42
2019-05-25T04:34:50.980Z,100745.19
2019-05-25T04:35:26.960Z,100740.64
2019-05-25T04:36:02.811Z,100746.14
2019-05-25T04:36:38.639Z,100745.34
2019-05-25T04:37:16.158Z,100741.26
2019-05-25T04:37:51.970Z,100742.63
2019-05-25T04:38:27.846Z,100741.44
2019-05-25T04:39:05.364Z,100739.75
2019-05-25T04:39:41.820Z,100739.42
2019-05-25T04:40:17.704Z,100736.70
2019-05-25T04:40:53.656Z,100738.06
2019-05-25T04:41:29.547Z,100738.54
2019-05-25T04:42:05.373Z,100738.77
2019-05-25T04:42:41.283Z,100735.73
2019-05-25T04:43:17.156Z,100740.64
2019-05-25T04:43:53.429Z,100732.95
2019-05-25T04:44:29.391Z,100733.19
2019-05-25T04:45:05.529Z,100731.11
2019-05-25T04:45:41.410Z,100730.74
2019-05-25T04:46:17.292Z,100729.91
2019-05-25T04:46:53.944Z,100726.60
2019-05-25T04:47:32.004Z,100730.16
2019-05-25T04:48:08.000Z,100730.47
2019-05-25T04:48:43.887Z,100730.78
2019-05-25T04:49:19.770Z,100727.77
2019-05-25T04:49:55.642Z,100725.64
2019-05-25T04:50:31.548Z,100728.44
2019-05-25T04:51:07.490Z,100727.77
2019-05-25T04:51:44.064Z,100722.69
2019-05-25T04:52:21.453Z,100725.31
2019-05-25T04:52:58.015Z,100720.56
2019-05-25T04:53:34.419Z,100722.05
2019-05-25T04:54:10.839Z,100718.59
2019-05-25T04:54:47.185Z,100717.28
2019-05-25T04:55:23.151Z,100720.48
2019-05-25T04:55:59.144Z,100717.75
2019-05-25T04:56:44.303Z,100719.24
2019-05-25T04:57:21.655Z,100717.31
2019-05-25T04:57:57.568Z,100713.64
2019-05-25T04:58:33.495Z,100711.31
2019-05-25T04:59:09.402Z,100713.55
2019-05-25T04:59:46.063Z,100713.75
2019-05-25T05:00:21.929Z,100709.09
2019-05-25T05:00:57.902Z,100714.19
2019-05-25T05:01:33.839Z,100707.14
2019-05-25T05:02:09.813Z,100707.57
2019-05-25T05:02:45.703Z,100709.13
2019-05-25T05:03:21.676Z,100701.59
2019-05-25T05:03:57.709Z,100707.14
2019-05-25T05:04:33.570Z,100704.28
2019-05-25T05:05:09.447Z,100705.17
2019-05-25T05:05:45.309Z,100700.82
2019-05-25T05:06:21.164Z,100704.20
2019-05-25T05:06:57.080Z,100703.74
2019-05-25T05:07:32.958Z,100706.20
2019-05-25T05:08:08.859Z,100696.17
2019-05-25T05:08:44.765Z,100694.16
2019-05-25T05:09:20.617Z,100697.45
2019-05-25T05:10:02.774Z,100694.73
2019-05-25T05:10:34.222Z,100692.57
2019-05-25T05:11:10.111Z,100689.05
2019-05-25T05:11:45.976Z,100689.94
2019-05-25T05:12:21.839Z,100688.58
2019-05-25T05:12:57.706Z,100681.30
2019-05-25T05:13:33.623Z,100679.15
2019-05-25T05:14:09.504Z,100681.07
2019-05-25T05:14:45.343Z,100678.35
2019-05-25T05:15:21.754Z,100676.98
2019-05-25T05:15:57.723Z,100675.95
2019-05-25T05:16:33.611Z,100684.69
2019-05-25T05:17:09.480Z,100680.61
2019-05-25T05:17:45.488Z,100683.33
2019-05-25T05:18:21.341Z,100681.41
2019-05-25T05:18:57.278Z,100678.98
2019-05-25T05:19:33.131Z,100675.79
2019-05-25T05:20:11.093Z,100671.89
2019-05-25T05:20:46.991Z,100677.11
2019-05-25T05:21:22.859Z,100668.19
2019-05-25T05:21:58.844Z,100671.80
2019-05-25T05:22:34.820Z,100674.99
2019-05-25T05:23:10.790Z,100668.52
2019-05-25T05:23:46.670Z,100670.91
2019-05-25T05:24:22.546Z,100672.74
2019-05-25T05:24:58.438Z,100671.85
2019-05-25T05:25:34.267Z,100669.12
2019-05-25T05:26:10.122Z,100666.08
2019-05-25T05:26:55.396Z,100667.34
2019-05-25T05:27:23.640Z,100666.45
2019-05-25T05:27:59.567Z,100663.50
2019-05-25T05:28:35.398Z,100664.06
2019-05-25T05:29:11.421Z,100665.56
2019-05-25T05:29:47.315Z,100664.63
2019-05-25T05:30:32.675Z,100660.77
2019-05-25T05:31:22.747Z,100660.77
2019-05-25T05:31:46.389Z,100658.28
2019-05-25T05:32:27.448Z,100658.52
2019-05-25T05:33:00.137Z,100666.92
2019-05-25T05:33:36.144Z,100657.39
2019-05-25T05:34:13.350Z,100658.42
2019-05-25T05:34:49.234Z,100657.86
2019-05-25T05:35:25.096Z,100655.14
2019-05-25T05:36:01.758Z,100660.81
2019-05-25T05:36:39.111Z,100654.02
2019-05-25T05:37:14.998Z,100659.22
2019-05-25T05:37:50.929Z,100655.70
2019-05-25T05:38:27.117Z,100654.02
2019-05-25T05:39:06.250Z,100654.91
2019-05-25T05:39:42.578Z,100653.78
2019-05-25T05:40:18.544Z,100646.73
2019-05-25T05:40:54.846Z,100652.42
2019-05-25T05:41:32.314Z,100647.07
2019-05-25T05:42:09.678Z,100641.72
2019-05-25T05:42:47.042Z,100640.36
2019-05-25T05:43:23.189Z,100643.98
2019-05-25T05:43:59.153Z,100639.99
2019-05-25T05:44:36.272Z,100639.38
2019-05-25T05:45:12.449Z,100636.19
2019-05-25T05:45:49.601Z,100634.27
2019-05-25T05:46:25.587Z,100634.83
2019-05-25T05:47:01.761Z,100637.31
2019-05-25T05:47:38.069Z,100634.10
2019-05-25T05:48:14.700Z,100633.63
2019-05-25T05:48:53.029Z,100637.48
2019-05-25T05:49:30.533Z,100635.38
2019-05-25T05:50:08.266Z,100630.44
2019-05-25T05:50:44.135Z,100632.34
2019-05-25T05:51:21.973Z,100626.36
2019-05-25T05:52:00.837Z,100628.02
2019-05-25T05:52:39.302Z,100631.86
2019-05-25T05:53:15.295Z,100626.36
2019-05-25T05:53:54.682Z,100620.66
2019-05-25T05:54:30.961Z,100620.66
2019-05-25T05:55:07.169Z,100621.62
2019-05-25T05:55:43.097Z,100618.57
2019-05-25T05:56:18.951Z,100615.55
2019-05-25T05:57:10.729Z,100615.55
2019-05-25T05:57:32.465Z,100615.62
2019-05-25T05:58:08.344Z,100612.33
2019-05-25T05:58:44.293Z,100611.13
2019-05-25T05:59:20.164Z,100606.75
2019-05-25T05:59:56.050Z,100608.17
2019-05-25T06:00:32.115Z,100604.28
2019-05-25T06:01:08.080Z,100606.63
2019-05-25T06:01:43.962Z,100610.62
2019-05-25T06:02:19.872Z,100609.02
2019-05-25T06:02:55.748Z,100609.02
2019-05-25T06:03:31.645Z,100605.97
2019-05-25T06:04:07.597Z,100608.92
2019-05-25T06:04:43.673Z,100610.85
2019-05-25T06:05:19.556Z,100602.45
2019-05-25T06:05:55.454Z,100600.63
2019-05-25T06:06:31.356Z,100605.41
2019-05-25T06:07:07.265Z,100605.22
2019-05-25T06:07:43.154Z,100600.32
2019-05-25T06:08:19.062Z,100597.44
2019-05-25T06:08:55.038Z,100598.60
2019-05-25T06:09:30.948Z,100597.52
2019-05-25T06:10:08.326Z,100598.67
2019-05-25T06:10:44.154Z,100602.76
2019-05-25T06:11:20.063Z,100603.33
2019-05-25T06:11:55.989Z,100600.44
2019-05-25T06:12:32.090Z,100596.35
2019-05-25T06:13:07.940Z,100599.31
2019-05-25T06:13:43.896Z,100601.47
2019-05-25T06:14:19.819Z,100602.03
2019-05-25T06:14:55.700Z,100597.95
2019-05-25T06:15:31.666Z,100597.38
2019-05-25T06:16:09.124Z,100599.87
2019-05-25T06:16:45.020Z,100588.75
2019-05-25T06:17:20.881Z,100589.64
2019-05-25T06:17:56.716Z,100594.69
2019-05-25T06:18:32.594Z,100592.44
2019-05-25T06:19:08.427Z,100586.26
2019-05-25T06:19:44.267Z,100589.15
2019-05-25T06:20:20.164Z,100586.39
2019-05-25T06:20:56.023Z,100587.39
2019-05-25T06:21:31.928Z,100586.92
2019-05-25T06:22:07.761Z,100587.11
2019-05-25T06:22:43.633Z,100586.09
2019-05-25T06:23:19.496Z,100590.91
2019-05-25T06:23:55.414Z,100588.41
2019-05-25T06:24:31.875Z,100589.08
2019-05-25T06:25:08.342Z,100584.95
2019-05-25T06:25:44.344Z,100582.63
2019-05-25T06:26:20.236Z,100585.13
2019-05-25T06:26:56.162Z,100581.70
2019-05-25T06:27:32.012Z,100583.92
2019-05-25T06:28:07.867Z,100583.22
2019-05-25T06:28:43.707Z,100583.98
2019-05-25T06:29:21.088Z,100583.31
2019-05-25T06:29:56.988Z,100583.29
2019-05-25T06:30:32.960Z,100586.41
2019-05-25T06:31:08.806Z,100583.08
2019-05-25T06:31:44.758Z,100578.86
2019-05-25T06:32:20.630Z,100582.48
2019-05-25T06:32:56.505Z,100579.52
2019-05-25T06:33:32.421Z,100578.55
2019-05-25T06:34:08.518Z,100583.95
2019-05-25T06:34:44.433Z,100580.76
2019-05-25T06:35:20.506Z,100578.46
2019-05-25T06:35:56.529Z,100577.52
2019-05-25T06:36:32.517Z,100577.98
2019-05-25T06:37:08.415Z,100577.43
2019-05-25T06:37:44.299Z,100574.56
2019-05-25T06:38:20.339Z,100577.29
2019-05-25T06:38:56.315Z,100577.97
2019-05-25T06:39:32.217Z,100576.63
2019-05-25T06:40:08.482Z,100576.27
2019-05-25T06:40:44.923Z,100572.02
2019-05-25T06:41:20.843Z,100576.20
2019-05-25T06:41:56.857Z,100571.17
2019-05-25T06:42:32.739Z,100566.71
2019-05-25T06:43:08.694Z,100564.70
2019-05-25T06:43:44.588Z,100564.77
2019-05-25T06:44:20.464Z,100563.89
2019-05-25T06:44:56.333Z,100559.45
2019-05-25T06:45:32.687Z,100563.67
2019-05-25T06:46:08.707Z,100564.33
2019-05-25T06:46:44.618Z,100567.19
2019-05-25T06:47:20.473Z,100556.32
2019-05-25T06:47:57.373Z,100561.78
2019-05-25T06:48:34.135Z,100554.73
2019-05-25T06:49:10.875Z,100550.00
2019-05-25T06:49:47.224Z,100554.35
2019-05-25T06:50:23.754Z,100549.58
2019-05-25T06:51:00.329Z,100550.52
2019-05-25T06:51:36.829Z,100549.37
2019-05-25T06:52:13.316Z,100550.03
2019-05-25T06:52:49.703Z,100543.01